Hlavní strana
METAR-TAF:

METAR-TAF

Letiště :

Batumi, Gruzie

zeměpisná šířka: 41-36-37N, zeměpisná délka: 041-35-58E, výška: 32 m

Aktuální stav počasí

Zpráva byla vytvořena před 33 minutami, v 22:30 UTC
Jihovýchodní vítr 4 kt
Teplota 5°C
Vlhkost vzduchu 93%
Tlak 1015 hPa
Viditelnost 10 km a více
Oblačno až skoro zataženo ve výšce 3000 ft

METAR: UGSB 252230Z 14004KT 9999 BKN030 05/04 Q1015 R13/2///55 NOSIG

Čas: 03:03 (23:03 UTC)

Předpověď počasí

Zpráva byla vytvořena před 6 hodinami a 3 minutami, v 17:00 UTC
Předpověď platná od 25 v 18 UTC do 26 v 18 UTC
Jihovýchodní vítr 8 kt
Viditelnost 10 km a více
Skoro jasno ve výšce 3000 ft
Polojasno ve výšce 6000 ft
Změna
od 26 v 06 UTC do 26 v 08 UTC
Západoseverozápadní vítr 10 kt

TAF: UGSB 251700Z 2518/2618 13008KT 9999 FEW030 SCT060 TX09/2611Z TN05/2602Z BECMG 2606/2608 30010KT

Stav a předpovědi počasí z více než 4 000 letišť (zprávy METAR a TAF).

Červené a žluté tečky na mapě představují dostupné meteorologické stanice.

Když kurzor umístíte na tečku, zobrazí se název stanice.

Pak kliknutím zobrazíte stav a předpověď počasí.

Chcete-li změnit mapu, kliknutím na zelené tlačítko se znaménkem +mapu přiblížíte, kliknutím na zelené tlačítko se znaménkem – mapu oddálíte a kliknutím na zelené šipky přejdete na sousední mapy.


METAR-TAF: